sensor_id;sensor_type;location;lat;lon;timestamp;P1;durP1;ratioP1;P2;durP2;ratioP2
43088;SDS011;28709;52.030;5.652;2022-12-04T00:02:17;56.38;;;23.52;;
43088;SDS011;28709;52.030;5.652;2022-12-04T00:04:42;57.45;;;24.05;;
43088;SDS011;28709;52.030;5.652;2022-12-04T00:07:08;71.25;;;28.15;;
43088;SDS011;28709;52.030;5.652;2022-12-04T00:09:33;68.45;;;28.10;;
43088;SDS011;28709;52.030;5.652;2022-12-04T00:11:59;62.90;;;26.05;;
43088;SDS011;28709;52.030;5.652;2022-12-04T00:14:25;74.25;;;27.58;;
43088;SDS011;28709;52.030;5.652;2022-12-04T00:16:50;73.35;;;29.05;;
43088;SDS011;28709;52.030;5.652;2022-12-04T00:19:16;69.40;;;26.60;;
43088;SDS011;28709;52.030;5.652;2022-12-04T00:21:42;76.45;;;27.27;;
43088;SDS011;28709;52.030;5.652;2022-12-04T00:24:09;70.80;;;26.33;;
43088;SDS011;28709;52.030;5.652;2022-12-04T00:26:34;68.40;;;27.42;;
43088;SDS011;28709;52.030;5.652;2022-12-04T00:29:00;70.05;;;27.63;;
43088;SDS011;28709;52.030;5.652;2022-12-04T00:31:27;58.63;;;23.98;;
43088;SDS011;28709;52.030;5.652;2022-12-04T00:33:53;59.67;;;23.63;;
43088;SDS011;28709;52.030;5.652;2022-12-04T00:36:20;58.55;;;23.02;;
43088;SDS011;28709;52.030;5.652;2022-12-04T00:38:46;59.55;;;25.35;;
43088;SDS011;28709;52.030;5.652;2022-12-04T00:41:13;63.67;;;26.35;;
43088;SDS011;28709;52.030;5.652;2022-12-04T00:43:40;71.75;;;29.13;;
43088;SDS011;28709;52.030;5.652;2022-12-04T00:46:06;61.33;;;26.92;;
43088;SDS011;28709;52.030;5.652;2022-12-04T00:48:33;64.22;;;25.45;;
43088;SDS011;28709;52.030;5.652;2022-12-04T00:51:00;70.80;;;26.52;;
43088;SDS011;28709;52.030;5.652;2022-12-04T00:53:27;57.28;;;26.02;;
43088;SDS011;28709;52.030;5.652;2022-12-04T00:55:53;62.35;;;24.35;;
43088;SDS011;28709;52.030;5.652;2022-12-04T00:58:18;67.03;;;27.17;;
43088;SDS011;28709;52.030;5.652;2022-12-04T01:00:44;72.05;;;26.95;;
43088;SDS011;28709;52.030;5.652;2022-12-04T01:03:10;68.78;;;29.63;;
43088;SDS011;28709;52.030;5.652;2022-12-04T01:05:39;64.63;;;27.58;;
43088;SDS011;28709;52.030;5.652;2022-12-04T01:08:06;69.20;;;28.13;;
43088;SDS011;28709;52.030;5.652;2022-12-04T01:10:33;64.10;;;26.52;;
43088;SDS011;28709;52.030;5.652;2022-12-04T01:12:58;58.13;;;24.27;;
43088;SDS011;28709;52.030;5.652;2022-12-04T01:15:24;60.30;;;24.83;;
43088;SDS011;28709;52.030;5.652;2022-12-04T01:17:50;66.95;;;26.30;;
43088;SDS011;28709;52.030;5.652;2022-12-04T01:20:16;65.47;;;26.65;;
43088;SDS011;28709;52.030;5.652;2022-12-04T01:22:42;66.30;;;26.38;;
43088;SDS011;28709;52.030;5.652;2022-12-04T01:25:08;63.00;;;25.92;;
43088;SDS011;28709;52.030;5.652;2022-12-04T01:27:34;63.95;;;26.63;;
43088;SDS011;28709;52.030;5.652;2022-12-04T01:29:59;62.22;;;27.55;;
43088;SDS011;28709;52.030;5.652;2022-12-04T01:32:25;71.47;;;30.67;;
43088;SDS011;28709;52.030;5.652;2022-12-04T01:34:51;63.53;;;26.33;;
43088;SDS011;28709;52.030;5.652;2022-12-04T01:37:16;68.05;;;27.83;;
43088;SDS011;28709;52.030;5.652;2022-12-04T01:39:42;74.65;;;31.15;;
43088;SDS011;28709;52.030;5.652;2022-12-04T01:42:14;67.10;;;26.63;;
43088;SDS011;28709;52.030;5.652;2022-12-04T01:44:43;58.63;;;23.77;;
43088;SDS011;28709;52.030;5.652;2022-12-04T01:47:46;63.30;;;25.48;;
43088;SDS011;28709;52.030;5.652;2022-12-04T01:50:12;68.15;;;28.08;;
43088;SDS011;28709;52.030;5.652;2022-12-04T01:52:38;65.07;;;27.40;;
43088;SDS011;28709;52.030;5.652;2022-12-04T01:55:04;69.25;;;29.35;;
43088;SDS011;28709;52.030;5.652;2022-12-04T01:57:30;63.08;;;27.08;;
43088;SDS011;28709;52.030;5.652;2022-12-04T02:00:07;61.15;;;25.75;;
43088;SDS011;28709;52.030;5.652;2022-12-04T02:02:36;63.28;;;25.17;;
43088;SDS011;28709;52.030;5.652;2022-12-04T02:05:05;67.28;;;28.73;;
43088;SDS011;28709;52.030;5.652;2022-12-04T02:07:32;64.65;;;27.15;;
43088;SDS011;28709;52.030;5.652;2022-12-04T02:09:58;66.38;;;26.75;;
43088;SDS011;28709;52.030;5.652;2022-12-04T02:29:11;64.80;;;27.80;;
43088;SDS011;28709;52.030;5.652;2022-12-04T02:31:54;61.88;;;26.27;;
43088;SDS011;28709;52.030;5.652;2022-12-04T02:37:36;82.03;;;29.98;;
43088;SDS011;28709;52.030;5.652;2022-12-04T02:40:13;68.32;;;28.35;;
43088;SDS011;28709;52.030;5.652;2022-12-04T02:42:56;69.63;;;28.10;;
43088;SDS011;28709;52.030;5.652;2022-12-04T02:48:29;71.05;;;28.15;;
43088;SDS011;28709;52.030;5.652;2022-12-04T02:50:58;64.47;;;26.48;;
43088;SDS011;28709;52.030;5.652;2022-12-04T02:53:29;65.68;;;27.75;;
43088;SDS011;28709;52.030;5.652;2022-12-04T02:56:11;69.85;;;30.20;;
43088;SDS011;28709;52.030;5.652;2022-12-04T02:58:50;69.90;;;26.27;;
43088;SDS011;28709;52.030;5.652;2022-12-04T03:01:24;80.60;;;30.48;;
43088;SDS011;28709;52.030;5.652;2022-12-04T03:04:00;61.13;;;25.50;;
43088;SDS011;28709;52.030;5.652;2022-12-04T03:06:48;69.30;;;28.98;;
43088;SDS011;28709;52.030;5.652;2022-12-04T03:09:21;68.30;;;27.58;;
43088;SDS011;28709;52.030;5.652;2022-12-04T03:11:51;68.22;;;26.77;;
43088;SDS011;28709;52.030;5.652;2022-12-04T03:14:26;63.22;;;25.85;;
43088;SDS011;28709;52.030;5.652;2022-12-04T03:16:58;68.15;;;29.40;;
43088;SDS011;28709;52.030;5.652;2022-12-04T03:19:28;73.32;;;29.52;;
43088;SDS011;28709;52.030;5.652;2022-12-04T03:22:03;62.92;;;26.05;;
43088;SDS011;28709;52.030;5.652;2022-12-04T03:24:40;65.53;;;25.85;;
43088;SDS011;28709;52.030;5.652;2022-12-04T03:27:13;66.10;;;26.10;;
43088;SDS011;28709;52.030;5.652;2022-12-04T03:32:28;65.60;;;27.55;;
43088;SDS011;28709;52.030;5.652;2022-12-04T03:37:51;71.30;;;28.58;;
43088;SDS011;28709;52.030;5.652;2022-12-04T03:42:52;71.05;;;28.95;;
43088;SDS011;28709;52.030;5.652;2022-12-04T03:45:29;72.88;;;29.85;;
43088;SDS011;28709;52.030;5.652;2022-12-04T03:48:05;62.38;;;27.27;;
43088;SDS011;28709;52.030;5.652;2022-12-04T03:50:41;71.85;;;27.85;;
43088;SDS011;28709;52.030;5.652;2022-12-04T03:55:45;63.40;;;26.67;;
43088;SDS011;28709;52.030;5.652;2022-12-04T03:58:25;69.88;;;29.67;;
43088;SDS011;28709;52.030;5.652;2022-12-04T04:00:55;63.30;;;28.08;;
43088;SDS011;28709;52.030;5.652;2022-12-04T04:03:25;61.60;;;26.15;;
43088;SDS011;28709;52.030;5.652;2022-12-04T04:05:55;68.80;;;26.27;;
43088;SDS011;28709;52.030;5.652;2022-12-04T04:08:28;60.47;;;25.33;;
43088;SDS011;28709;52.030;5.652;2022-12-04T04:13:41;73.97;;;28.40;;
43088;SDS011;28709;52.030;5.652;2022-12-04T04:16:30;60.35;;;24.52;;
43088;SDS011;28709;52.030;5.652;2022-12-04T04:19:17;63.15;;;24.25;;
43088;SDS011;28709;52.030;5.652;2022-12-04T04:22:03;67.85;;;27.65;;
43088;SDS011;28709;52.030;5.652;2022-12-04T04:24:54;61.55;;;25.95;;
43088;SDS011;28709;52.030;5.652;2022-12-04T04:27:28;63.92;;;26.85;;
43088;SDS011;28709;52.030;5.652;2022-12-04T04:29:54;62.42;;;25.35;;
43088;SDS011;28709;52.030;5.652;2022-12-04T04:32:41;64.13;;;26.52;;
43088;SDS011;28709;52.030;5.652;2022-12-04T04:35:25;65.43;;;27.33;;
43088;SDS011;28709;52.030;5.652;2022-12-04T04:38:26;65.57;;;27.92;;
43088;SDS011;28709;52.030;5.652;2022-12-04T04:46:37;65.63;;;28.00;;
43088;SDS011;28709;52.030;5.652;2022-12-04T04:49:09;73.03;;;30.08;;
43088;SDS011;28709;52.030;5.652;2022-12-04T04:51:36;67.70;;;28.70;;
43088;SDS011;28709;52.030;5.652;2022-12-04T04:54:03;68.35;;;28.27;;
43088;SDS011;28709;52.030;5.652;2022-12-04T04:56:38;66.20;;;28.90;;
43088;SDS011;28709;52.030;5.652;2022-12-04T04:59:07;70.90;;;27.50;;
43088;SDS011;28709;52.030;5.652;2022-12-04T05:01:33;63.83;;;27.08;;
43088;SDS011;28709;52.030;5.652;2022-12-04T05:04:00;61.72;;;26.83;;
43088;SDS011;28709;52.030;5.652;2022-12-04T05:06:27;53.17;;;24.42;;
43088;SDS011;28709;52.030;5.652;2022-12-04T05:08:53;65.10;;;26.63;;
43088;SDS011;28709;52.030;5.652;2022-12-04T05:11:18;62.72;;;27.17;;
43088;SDS011;28709;52.030;5.652;2022-12-04T05:13:44;56.78;;;25.50;;
43088;SDS011;28709;52.030;5.652;2022-12-04T05:16:12;66.97;;;28.25;;
43088;SDS011;28709;52.030;5.652;2022-12-04T05:18:39;66.80;;;25.52;;
43088;SDS011;28709;52.030;5.652;2022-12-04T05:21:08;60.53;;;25.33;;
43088;SDS011;28709;52.030;5.652;2022-12-04T05:23:40;56.63;;;23.88;;
43088;SDS011;28709;52.030;5.652;2022-12-04T05:26:06;63.08;;;27.20;;
43088;SDS011;28709;52.030;5.652;2022-12-04T05:28:31;63.58;;;26.60;;
43088;SDS011;28709;52.030;5.652;2022-12-04T05:30:58;67.57;;;27.88;;
43088;SDS011;28709;52.030;5.652;2022-12-04T05:33:27;68.10;;;28.40;;
43088;SDS011;28709;52.030;5.652;2022-12-04T05:35:55;56.92;;;26.40;;
43088;SDS011;28709;52.030;5.652;2022-12-04T05:38:24;70.78;;;26.75;;
43088;SDS011;28709;52.030;5.652;2022-12-04T05:40:50;56.67;;;25.10;;
43088;SDS011;28709;52.030;5.652;2022-12-04T05:43:16;57.65;;;24.90;;
43088;SDS011;28709;52.030;5.652;2022-12-04T05:45:41;69.50;;;27.70;;
43088;SDS011;28709;52.030;5.652;2022-12-04T05:48:07;70.68;;;28.05;;
43088;SDS011;28709;52.030;5.652;2022-12-04T05:50:33;64.55;;;27.98;;
43088;SDS011;28709;52.030;5.652;2022-12-04T05:52:58;52.47;;;23.55;;
43088;SDS011;28709;52.030;5.652;2022-12-04T05:55:24;62.45;;;27.10;;
43088;SDS011;28709;52.030;5.652;2022-12-04T05:57:49;57.33;;;26.27;;
43088;SDS011;28709;52.030;5.652;2022-12-04T06:00:15;64.97;;;26.50;;
43088;SDS011;28709;52.030;5.652;2022-12-04T06:02:42;71.13;;;26.42;;
43088;SDS011;28709;52.030;5.652;2022-12-04T06:05:07;72.05;;;29.35;;
43088;SDS011;28709;52.030;5.652;2022-12-04T06:07:33;55.75;;;25.10;;
43088;SDS011;28709;52.030;5.652;2022-12-04T06:09:59;62.75;;;24.63;;
43088;SDS011;28709;52.030;5.652;2022-12-04T06:12:25;58.08;;;25.00;;
43088;SDS011;28709;52.030;5.652;2022-12-04T06:14:50;59.95;;;26.13;;
43088;SDS011;28709;52.030;5.652;2022-12-04T06:17:16;58.08;;;27.02;;
43088;SDS011;28709;52.030;5.652;2022-12-04T06:19:42;59.95;;;24.80;;
43088;SDS011;28709;52.030;5.652;2022-12-04T06:22:07;57.47;;;24.42;;
43088;SDS011;28709;52.030;5.652;2022-12-04T06:24:33;54.35;;;23.85;;
43088;SDS011;28709;52.030;5.652;2022-12-04T06:26:58;54.30;;;24.17;;
43088;SDS011;28709;52.030;5.652;2022-12-04T06:29:24;48.72;;;21.80;;
43088;SDS011;28709;52.030;5.652;2022-12-04T06:31:50;55.17;;;24.52;;
43088;SDS011;28709;52.030;5.652;2022-12-04T06:34:16;53.88;;;22.58;;
43088;SDS011;28709;52.030;5.652;2022-12-04T06:36:41;48.55;;;23.33;;
43088;SDS011;28709;52.030;5.652;2022-12-04T06:39:08;53.30;;;22.70;;
43088;SDS011;28709;52.030;5.652;2022-12-04T06:41:34;53.55;;;22.92;;
43088;SDS011;28709;52.030;5.652;2022-12-04T06:43:59;53.83;;;24.42;;
43088;SDS011;28709;52.030;5.652;2022-12-04T06:46:26;58.55;;;24.77;;
43088;SDS011;28709;52.030;5.652;2022-12-04T06:48:54;51.45;;;22.17;;
43088;SDS011;28709;52.030;5.652;2022-12-04T06:51:23;60.17;;;24.75;;
43088;SDS011;28709;52.030;5.652;2022-12-04T06:53:53;52.35;;;23.65;;
43088;SDS011;28709;52.030;5.652;2022-12-04T06:56:20;58.80;;;24.25;;
43088;SDS011;28709;52.030;5.652;2022-12-04T06:58:48;56.72;;;23.38;;
43088;SDS011;28709;52.030;5.652;2022-12-04T07:01:18;55.50;;;22.80;;
43088;SDS011;28709;52.030;5.652;2022-12-04T07:03:45;59.83;;;25.92;;
43088;SDS011;28709;52.030;5.652;2022-12-04T07:08:43;55.65;;;24.45;;
43088;SDS011;28709;52.030;5.652;2022-12-04T07:11:10;64.32;;;24.75;;
43088;SDS011;28709;52.030;5.652;2022-12-04T07:13:37;60.67;;;24.15;;
43088;SDS011;28709;52.030;5.652;2022-12-04T07:16:03;60.38;;;25.65;;
43088;SDS011;28709;52.030;5.652;2022-12-04T07:18:30;57.20;;;24.75;;
43088;SDS011;28709;52.030;5.652;2022-12-04T07:20:57;53.40;;;23.00;;
43088;SDS011;28709;52.030;5.652;2022-12-04T07:23:23;50.83;;;21.42;;
43088;SDS011;28709;52.030;5.652;2022-12-04T07:25:49;56.55;;;23.88;;
43088;SDS011;28709;52.030;5.652;2022-12-04T07:28:15;55.88;;;23.70;;
43088;SDS011;28709;52.030;5.652;2022-12-04T07:30:41;59.28;;;25.30;;
43088;SDS011;28709;52.030;5.652;2022-12-04T07:33:06;53.40;;;23.83;;
43088;SDS011;28709;52.030;5.652;2022-12-04T07:35:32;55.42;;;24.50;;
43088;SDS011;28709;52.030;5.652;2022-12-04T07:37:58;57.30;;;23.27;;
43088;SDS011;28709;52.030;5.652;2022-12-04T07:40:23;57.35;;;24.00;;
43088;SDS011;28709;52.030;5.652;2022-12-04T07:42:49;53.92;;;24.27;;
43088;SDS011;28709;52.030;5.652;2022-12-04T07:45:15;59.58;;;24.58;;
43088;SDS011;28709;52.030;5.652;2022-12-04T07:47:40;59.30;;;24.35;;
43088;SDS011;28709;52.030;5.652;2022-12-04T07:50:06;60.00;;;25.70;;
43088;SDS011;28709;52.030;5.652;2022-12-04T07:52:36;58.83;;;24.70;;
43088;SDS011;28709;52.030;5.652;2022-12-04T07:55:03;56.53;;;23.83;;
43088;SDS011;28709;52.030;5.652;2022-12-04T07:57:30;67.22;;;27.58;;
43088;SDS011;28709;52.030;5.652;2022-12-04T07:59:56;62.35;;;26.73;;
43088;SDS011;28709;52.030;5.652;2022-12-04T08:02:21;66.53;;;26.25;;
43088;SDS011;28709;52.030;5.652;2022-12-04T08:04:47;65.88;;;27.73;;
43088;SDS011;28709;52.030;5.652;2022-12-04T08:07:13;58.58;;;24.60;;
43088;SDS011;28709;52.030;5.652;2022-12-04T08:09:38;57.95;;;23.63;;
43088;SDS011;28709;52.030;5.652;2022-12-04T08:12:05;62.40;;;24.65;;
43088;SDS011;28709;52.030;5.652;2022-12-04T08:14:31;62.97;;;26.05;;
43088;SDS011;28709;52.030;5.652;2022-12-04T08:16:57;50.80;;;22.05;;
43088;SDS011;28709;52.030;5.652;2022-12-04T08:19:22;57.25;;;24.00;;
43088;SDS011;28709;52.030;5.652;2022-12-04T08:21:48;56.90;;;21.10;;
43088;SDS011;28709;52.030;5.652;2022-12-04T08:24:14;49.90;;;21.38;;
43088;SDS011;28709;52.030;5.652;2022-12-04T08:26:39;46.55;;;20.33;;
43088;SDS011;28709;52.030;5.652;2022-12-04T08:29:05;49.20;;;20.70;;
43088;SDS011;28709;52.030;5.652;2022-12-04T08:31:32;47.92;;;19.65;;
43088;SDS011;28709;52.030;5.652;2022-12-04T08:34:00;52.72;;;22.77;;
43088;SDS011;28709;52.030;5.652;2022-12-04T08:36:28;56.40;;;24.73;;
43088;SDS011;28709;52.030;5.652;2022-12-04T08:38:54;56.53;;;24.13;;
43088;SDS011;28709;52.030;5.652;2022-12-04T08:41:20;54.10;;;23.15;;
43088;SDS011;28709;52.030;5.652;2022-12-04T08:43:48;61.40;;;23.73;;
43088;SDS011;28709;52.030;5.652;2022-12-04T08:46:15;49.20;;;21.17;;
43088;SDS011;28709;52.030;5.652;2022-12-04T08:48:41;48.78;;;20.20;;
43088;SDS011;28709;52.030;5.652;2022-12-04T08:51:11;55.70;;;23.80;;
43088;SDS011;28709;52.030;5.652;2022-12-04T08:53:38;62.08;;;26.92;;
43088;SDS011;28709;52.030;5.652;2022-12-04T08:56:04;57.40;;;22.95;;
43088;SDS011;28709;52.030;5.652;2022-12-04T08:58:30;57.22;;;23.55;;
43088;SDS011;28709;52.030;5.652;2022-12-04T09:01:01;54.78;;;23.38;;
43088;SDS011;28709;52.030;5.652;2022-12-04T09:03:28;60.35;;;23.85;;
43088;SDS011;28709;52.030;5.652;2022-12-04T09:05:57;54.38;;;23.70;;
43088;SDS011;28709;52.030;5.652;2022-12-04T09:08:23;49.30;;;21.05;;
43088;SDS011;28709;52.030;5.652;2022-12-04T09:10:49;51.70;;;20.95;;
43088;SDS011;28709;52.030;5.652;2022-12-04T09:13:15;57.83;;;24.42;;
43088;SDS011;28709;52.030;5.652;2022-12-04T09:15:40;52.03;;;22.30;;
43088;SDS011;28709;52.030;5.652;2022-12-04T09:18:06;45.92;;;18.60;;
43088;SDS011;28709;52.030;5.652;2022-12-04T09:20:32;44.72;;;19.80;;
43088;SDS011;28709;52.030;5.652;2022-12-04T09:22:59;55.75;;;22.42;;
43088;SDS011;28709;52.030;5.652;2022-12-04T09:25:24;56.60;;;23.63;;
43088;SDS011;28709;52.030;5.652;2022-12-04T09:27:50;48.75;;;20.35;;
43088;SDS011;28709;52.030;5.652;2022-12-04T09:30:16;49.38;;;21.08;;
43088;SDS011;28709;52.030;5.652;2022-12-04T09:32:41;50.83;;;22.83;;
43088;SDS011;28709;52.030;5.652;2022-12-04T09:35:07;48.97;;;20.40;;
43088;SDS011;28709;52.030;5.652;2022-12-04T09:37:32;52.17;;;20.70;;
43088;SDS011;28709;52.030;5.652;2022-12-04T09:40:00;43.97;;;20.70;;
43088;SDS011;28709;52.030;5.652;2022-12-04T09:45:45;47.60;;;21.42;;
43088;SDS011;28709;52.030;5.652;2022-12-04T09:48:16;55.63;;;21.85;;
43088;SDS011;28709;52.030;5.652;2022-12-04T09:50:43;51.13;;;20.70;;
43088;SDS011;28709;52.030;5.652;2022-12-04T09:53:15;54.95;;;21.20;;
43088;SDS011;28709;52.030;5.652;2022-12-04T09:55:50;50.00;;;21.23;;
43088;SDS011;28709;52.030;5.652;2022-12-04T09:58:20;48.22;;;22.42;;
43088;SDS011;28709;52.030;5.652;2022-12-04T10:00:56;48.58;;;18.90;;
43088;SDS011;28709;52.030;5.652;2022-12-04T10:03:24;48.05;;;19.73;;
43088;SDS011;28709;52.030;5.652;2022-12-04T10:08:54;45.40;;;20.98;;
43088;SDS011;28709;52.030;5.652;2022-12-04T10:22:53;35.72;;;14.93;;
43088;SDS011;28709;52.030;5.652;2022-12-04T10:25:33;35.95;;;16.23;;
43088;SDS011;28709;52.030;5.652;2022-12-04T10:28:05;33.10;;;14.60;;
43088;SDS011;28709;52.030;5.652;2022-12-04T10:30:38;39.25;;;15.77;;
43088;SDS011;28709;52.030;5.652;2022-12-04T10:33:23;34.22;;;15.13;;
43088;SDS011;28709;52.030;5.652;2022-12-04T10:36:05;33.95;;;14.05;;
43088;SDS011;28709;52.030;5.652;2022-12-04T10:41:20;30.33;;;14.35;;
43088;SDS011;28709;52.030;5.652;2022-12-04T10:43:50;30.65;;;14.50;;
43088;SDS011;28709;52.030;5.652;2022-12-04T10:48:53;35.50;;;14.45;;
43088;SDS011;28709;52.030;5.652;2022-12-04T10:51:25;28.10;;;12.53;;
43088;SDS011;28709;52.030;5.652;2022-12-04T10:53:54;35.25;;;15.25;;
43088;SDS011;28709;52.030;5.652;2022-12-04T10:56:21;26.65;;;13.07;;
43088;SDS011;28709;52.030;5.652;2022-12-04T10:58:55;27.08;;;12.75;;
43088;SDS011;28709;52.030;5.652;2022-12-04T11:01:23;31.92;;;14.75;;
43088;SDS011;28709;52.030;5.652;2022-12-04T11:04:15;32.13;;;13.60;;
43088;SDS011;28709;52.030;5.652;2022-12-04T11:06:47;32.67;;;13.23;;
43088;SDS011;28709;52.030;5.652;2022-12-04T11:09:21;28.02;;;12.30;;
43088;SDS011;28709;52.030;5.652;2022-12-04T11:11:48;26.58;;;11.88;;
43088;SDS011;28709;52.030;5.652;2022-12-04T11:14:15;27.83;;;12.93;;
43088;SDS011;28709;52.030;5.652;2022-12-04T11:16:43;24.42;;;12.10;;
43088;SDS011;28709;52.030;5.652;2022-12-04T11:19:20;24.92;;;10.63;;
43088;SDS011;28709;52.030;5.652;2022-12-04T11:21:55;24.92;;;9.93;;
43088;SDS011;28709;52.030;5.652;2022-12-04T11:24:33;26.42;;;10.75;;
43088;SDS011;28709;52.030;5.652;2022-12-04T11:27:04;31.13;;;13.00;;
43088;SDS011;28709;52.030;5.652;2022-12-04T11:29:40;24.40;;;11.80;;
43088;SDS011;28709;52.030;5.652;2022-12-04T11:37:53;25.80;;;10.32;;
43088;SDS011;28709;52.030;5.652;2022-12-04T11:40:26;27.52;;;12.30;;
43088;SDS011;28709;52.030;5.652;2022-12-04T11:43:09;26.00;;;11.70;;
43088;SDS011;28709;52.030;5.652;2022-12-04T11:45:37;23.30;;;10.40;;
43088;SDS011;28709;52.030;5.652;2022-12-04T11:48:11;21.98;;;10.52;;
43088;SDS011;28709;52.030;5.652;2022-12-04T11:50:49;22.60;;;9.98;;
43088;SDS011;28709;52.030;5.652;2022-12-04T11:53:18;25.70;;;11.25;;
43088;SDS011;28709;52.030;5.652;2022-12-04T11:56:04;24.02;;;10.65;;
43088;SDS011;28709;52.030;5.652;2022-12-04T12:01:39;23.13;;;10.45;;
43088;SDS011;28709;52.030;5.652;2022-12-04T12:04:33;19.98;;;10.30;;
43088;SDS011;28709;52.030;5.652;2022-12-04T12:08:01;24.73;;;11.85;;
43088;SDS011;28709;52.030;5.652;2022-12-04T12:10:33;22.80;;;11.95;;
43088;SDS011;28709;52.030;5.652;2022-12-04T12:13:05;22.73;;;9.48;;
43088;SDS011;28709;52.030;5.652;2022-12-04T12:29:49;18.70;;;9.00;;
43088;SDS011;28709;52.030;5.652;2022-12-04T12:32:36;24.65;;;10.88;;
43088;SDS011;28709;52.030;5.652;2022-12-04T12:35:22;21.55;;;10.45;;
43088;SDS011;28709;52.030;5.652;2022-12-04T12:38:17;22.88;;;10.85;;
43088;SDS011;28709;52.030;5.652;2022-12-04T12:40:49;19.95;;;9.75;;
43088;SDS011;28709;52.030;5.652;2022-12-04T12:43:33;26.48;;;12.32;;
43088;SDS011;28709;52.030;5.652;2022-12-04T12:46:20;24.70;;;11.80;;
43088;SDS011;28709;52.030;5.652;2022-12-04T12:48:59;22.60;;;10.68;;
43088;SDS011;28709;52.030;5.652;2022-12-04T12:51:34;23.08;;;11.77;;
43088;SDS011;28709;52.030;5.652;2022-12-04T12:56:43;22.42;;;10.50;;
43088;SDS011;28709;52.030;5.652;2022-12-04T12:59:15;20.00;;;9.90;;
43088;SDS011;28709;52.030;5.652;2022-12-04T13:04:42;20.00;;;10.40;;
43088;SDS011;28709;52.030;5.652;2022-12-04T13:10:21;18.52;;;9.75;;
43088;SDS011;28709;52.030;5.652;2022-12-04T13:12:52;18.45;;;8.75;;
43088;SDS011;28709;52.030;5.652;2022-12-04T13:15:22;22.05;;;10.38;;
43088;SDS011;28709;52.030;5.652;2022-12-04T13:17:54;17.02;;;8.65;;
43088;SDS011;28709;52.030;5.652;2022-12-04T13:20:24;20.40;;;10.13;;
43088;SDS011;28709;52.030;5.652;2022-12-04T13:33:57;21.60;;;9.95;;
43088;SDS011;28709;52.030;5.652;2022-12-04T13:42:24;19.65;;;9.45;;
43088;SDS011;28709;52.030;5.652;2022-12-04T13:44:52;23.90;;;11.07;;
43088;SDS011;28709;52.030;5.652;2022-12-04T13:47:30;22.88;;;11.73;;
43088;SDS011;28709;52.030;5.652;2022-12-04T13:52:42;27.38;;;12.25;;
43088;SDS011;28709;52.030;5.652;2022-12-04T13:55:24;28.77;;;11.52;;
43088;SDS011;28709;52.030;5.652;2022-12-04T13:58:04;24.92;;;12.52;;
43088;SDS011;28709;52.030;5.652;2022-12-04T14:00:45;25.38;;;11.15;;
43088;SDS011;28709;52.030;5.652;2022-12-04T14:06:21;26.02;;;11.90;;
43088;SDS011;28709;52.030;5.652;2022-12-04T14:08:53;26.58;;;12.13;;
43088;SDS011;28709;52.030;5.652;2022-12-04T14:11:21;26.02;;;12.30;;
43088;SDS011;28709;52.030;5.652;2022-12-04T14:16:23;31.75;;;13.60;;
43088;SDS011;28709;52.030;5.652;2022-12-04T14:19:04;25.25;;;12.23;;
43088;SDS011;28709;52.030;5.652;2022-12-04T14:21:48;23.00;;;12.03;;
43088;SDS011;28709;52.030;5.652;2022-12-04T14:27:28;28.13;;;12.55;;
43088;SDS011;28709;52.030;5.652;2022-12-04T14:29:58;27.35;;;12.90;;
43088;SDS011;28709;52.030;5.652;2022-12-04T14:32:26;30.00;;;13.07;;
43088;SDS011;28709;52.030;5.652;2022-12-04T14:34:56;24.17;;;11.48;;
43088;SDS011;28709;52.030;5.652;2022-12-04T14:37:45;25.00;;;12.25;;
43088;SDS011;28709;52.030;5.652;2022-12-04T14:40:21;23.05;;;12.02;;
43088;SDS011;28709;52.030;5.652;2022-12-04T14:42:49;30.60;;;14.52;;
43088;SDS011;28709;52.030;5.652;2022-12-04T14:45:18;25.42;;;12.40;;
43088;SDS011;28709;52.030;5.652;2022-12-04T14:51:12;31.83;;;13.70;;
43088;SDS011;28709;52.030;5.652;2022-12-04T14:53:48;35.80;;;15.73;;
43088;SDS011;28709;52.030;5.652;2022-12-04T14:56:40;31.40;;;14.20;;
43088;SDS011;28709;52.030;5.652;2022-12-04T14:59:48;25.27;;;11.90;;
43088;SDS011;28709;52.030;5.652;2022-12-04T15:02:20;34.22;;;16.58;;
43088;SDS011;28709;52.030;5.652;2022-12-04T15:04:49;32.00;;;14.52;;
43088;SDS011;28709;52.030;5.652;2022-12-04T15:07:22;30.85;;;14.02;;
43088;SDS011;28709;52.030;5.652;2022-12-04T15:09:50;36.47;;;16.38;;
43088;SDS011;28709;52.030;5.652;2022-12-04T15:12:47;36.40;;;15.48;;
43088;SDS011;28709;52.030;5.652;2022-12-04T15:18:33;35.10;;;16.02;;
43088;SDS011;28709;52.030;5.652;2022-12-04T15:23:12;41.90;;;16.75;;
43088;SDS011;28709;52.030;5.652;2022-12-04T15:26:00;40.85;;;17.92;;
43088;SDS011;28709;52.030;5.652;2022-12-04T15:28:54;36.85;;;16.83;;
43088;SDS011;28709;52.030;5.652;2022-12-04T15:31:30;40.22;;;18.20;;
43088;SDS011;28709;52.030;5.652;2022-12-04T15:34:01;40.85;;;18.13;;
43088;SDS011;28709;52.030;5.652;2022-12-04T15:39:13;50.63;;;19.90;;
43088;SDS011;28709;52.030;5.652;2022-12-04T15:41:51;42.00;;;18.45;;
43088;SDS011;28709;52.030;5.652;2022-12-04T15:44:29;40.88;;;18.02;;
43088;SDS011;28709;52.030;5.652;2022-12-04T15:46:57;38.03;;;17.17;;
43088;SDS011;28709;52.030;5.652;2022-12-04T15:49:31;37.78;;;16.75;;
43088;SDS011;28709;52.030;5.652;2022-12-04T15:52:12;38.67;;;16.45;;
43088;SDS011;28709;52.030;5.652;2022-12-04T15:57:25;37.78;;;17.17;;
43088;SDS011;28709;52.030;5.652;2022-12-04T15:59:58;41.40;;;17.50;;
43088;SDS011;28709;52.030;5.652;2022-12-04T16:02:27;35.58;;;16.17;;
43088;SDS011;28709;52.030;5.652;2022-12-04T16:04:55;37.60;;;17.40;;
43088;SDS011;28709;52.030;5.652;2022-12-04T16:07:26;36.90;;;18.25;;
43088;SDS011;28709;52.030;5.652;2022-12-04T16:10:02;47.38;;;21.58;;
43088;SDS011;28709;52.030;5.652;2022-12-04T16:12:29;41.47;;;17.92;;
43088;SDS011;28709;52.030;5.652;2022-12-04T16:14:56;39.03;;;17.45;;
43088;SDS011;28709;52.030;5.652;2022-12-04T16:17:31;41.25;;;19.02;;
43088;SDS011;28709;52.030;5.652;2022-12-04T16:19:58;42.20;;;18.55;;
43088;SDS011;28709;52.030;5.652;2022-12-04T16:22:24;41.30;;;18.90;;
43088;SDS011;28709;52.030;5.652;2022-12-04T16:24:51;40.75;;;18.95;;
43088;SDS011;28709;52.030;5.652;2022-12-04T16:27:21;44.03;;;17.58;;
43088;SDS011;28709;52.030;5.652;2022-12-04T16:29:48;40.42;;;17.52;;
43088;SDS011;28709;52.030;5.652;2022-12-04T16:32:17;35.05;;;16.55;;
43088;SDS011;28709;52.030;5.652;2022-12-04T16:34:45;42.95;;;19.00;;
43088;SDS011;28709;52.030;5.652;2022-12-04T16:37:11;44.95;;;18.33;;
43088;SDS011;28709;52.030;5.652;2022-12-04T16:39:39;41.80;;;17.85;;
43088;SDS011;28709;52.030;5.652;2022-12-04T16:42:05;39.75;;;18.13;;
43088;SDS011;28709;52.030;5.652;2022-12-04T16:44:30;45.58;;;19.75;;
43088;SDS011;28709;52.030;5.652;2022-12-04T16:46:56;42.58;;;19.65;;
43088;SDS011;28709;52.030;5.652;2022-12-04T16:49:21;44.55;;;20.02;;
43088;SDS011;28709;52.030;5.652;2022-12-04T16:51:47;41.10;;;19.55;;
43088;SDS011;28709;52.030;5.652;2022-12-04T16:54:15;41.40;;;18.92;;
43088;SDS011;28709;52.030;5.652;2022-12-04T16:56:41;37.08;;;17.73;;
43088;SDS011;28709;52.030;5.652;2022-12-04T16:59:07;38.20;;;18.45;;
43088;SDS011;28709;52.030;5.652;2022-12-04T17:01:40;33.55;;;16.05;;
43088;SDS011;28709;52.030;5.652;2022-12-04T17:04:09;40.03;;;17.70;;